Time;durP1;ratioP1;P1;durP2;ratioP2;P2;SDS_P1;SDS_P2;PMS_P1;PMS_P2;Temp;Humidity;BMP_temperature;BMP_pressure;BME280_temperature;BME280_humidity;BME280_pressure;Samples;Min_cycle;Max_cycle;Signal;HPM_P1;HPM_P2
2021/11/16 00:00:38;;;;;;;60.83;30.90;;;3.80;99.90;;;4.46;100.00;101042.63;5176351;27;20325;-64
2021/11/16 00:03:08;;;;;;;54.37;29.33;;;3.80;99.90;;;4.35;100.00;101042.88;5177042;27;20239;-64
2021/11/16 00:05:37;;;;;;;64.57;32.27;;;3.70;99.90;;;4.35;100.00;101038.41;5176381;27;20197;-66
2021/11/16 00:08:07;;;;;;;60.50;30.47;;;3.70;99.90;;;4.08;100.00;101033.22;5176309;27;20284;-66
2021/11/16 00:10:37;;;;;;;64.23;31.63;;;3.70;99.90;;;4.12;100.00;101037.25;5176148;27;20222;-65
2021/11/16 00:13:10;;;;;;;64.20;31.90;;;3.60;99.90;;;4.10;100.00;101036.56;5176185;27;20291;-65
2021/11/16 00:15:40;;;;;;;62.83;31.73;;;3.60;99.90;;;4.49;100.00;101040.47;5175772;27;20668;-65
2021/11/16 00:18:08;;;;;;;56.57;31.43;;;3.60;99.90;;;4.39;100.00;101042.44;5175845;27;20753;-65
2021/11/16 00:20:41;;;;;;;62.40;32.30;;;3.60;99.90;;;4.23;100.00;101044.16;5134215;27;20197;-65
2021/11/16 00:23:16;;;;;;;61.53;31.30;;;3.60;99.90;;;4.31;100.00;101039.69;5134319;27;20203;-65
2021/11/16 00:25:46;;;;;;;62.27;31.37;;;3.60;99.90;;;4.12;100.00;101044.41;5117166;27;20223;-64
2021/11/16 00:28:15;;;;;;;59.87;30.63;;;3.60;99.90;;;4.11;100.00;101042.75;5113439;28;20302;-64
2021/11/16 00:30:44;;;;;;;60.63;31.37;;;3.60;99.90;;;4.40;100.00;101043.25;5114287;28;20225;-65
2021/11/16 00:33:13;;;;;;;65.47;31.90;;;3.60;99.90;;;4.51;100.00;101040.31;5114200;28;20221;-65
2021/11/16 00:35:41;;;;;;;68.13;32.00;;;3.60;99.90;;;4.46;100.00;101045.28;5113459;28;20301;-66
2021/11/16 00:38:13;;;;;;;65.47;32.87;;;3.70;99.90;;;4.48;100.00;101038.78;5113418;28;20233;-65
2021/11/16 00:40:43;;;;;;;63.83;33.17;;;3.70;99.90;;;4.44;100.00;101048.13;5113489;28;20177;-65
2021/11/16 00:43:12;;;;;;;63.40;32.77;;;3.70;99.90;;;4.44;100.00;101049.94;5113424;28;20766;-64
2021/11/16 00:45:45;;;;;;;66.83;31.47;;;3.80;99.90;;;4.52;100.00;101056.16;5112983;28;20244;-65
2021/11/16 00:48:16;;;;;;;65.90;32.63;;;3.80;99.90;;;4.71;100.00;101063.09;5113310;28;20194;-65
2021/11/16 00:50:51;;;;;;;66.17;33.07;;;3.90;99.90;;;4.62;100.00;101061.38;5113735;28;20295;-67
2021/11/16 00:53:22;;;;;;;61.67;31.53;;;3.90;99.90;;;4.82;100.00;101060.97;5113256;28;20190;-64
2021/11/16 00:55:50;;;;;;;59.17;31.10;;;3.90;99.90;;;4.77;100.00;101049.09;5113531;28;20200;-66
2021/11/16 00:58:19;;;;;;;60.70;30.53;;;4.00;99.90;;;4.79;100.00;101053.28;5113738;28;20197;-67
2021/11/16 01:00:49;;;;;;;65.97;33.17;;;4.00;99.90;;;4.91;100.00;101038.66;5113641;28;20224;-66
2021/11/16 01:03:20;;;;;;;61.97;31.67;;;4.10;99.90;;;5.21;100.00;101037.22;5113980;28;20200;-66
2021/11/16 01:05:49;;;;;;;64.77;33.37;;;4.20;99.90;;;5.17;100.00;101032.38;5113364;28;20275;-64
2021/11/16 01:08:17;;;;;;;61.23;31.90;;;4.20;99.90;;;4.94;100.00;101030.31;5113170;28;20704;-65
2021/11/16 01:10:46;;;;;;;58.33;31.60;;;4.20;99.90;;;5.20;100.00;101037.41;5113102;28;20283;-64
2021/11/16 01:13:20;;;;;;;62.33;31.93;;;4.30;99.90;;;5.23;100.00;101039.75;5113163;28;20204;-64
2021/11/16 01:15:52;;;;;;;68.40;33.37;;;4.30;99.90;;;5.33;100.00;101043.94;5113471;28;20293;-66
2021/11/16 01:18:24;;;;;;;64.00;31.83;;;4.40;99.90;;;5.25;100.00;101049.28;5114189;28;20228;-64
2021/11/16 01:20:53;;;;;;;67.43;33.00;;;4.40;99.90;;;5.51;100.00;101046.47;5133635;28;20222;-64
2021/11/16 01:23:23;;;;;;;68.70;33.50;;;4.40;99.90;;;5.44;100.00;101050.81;5133403;28;20312;-66
2021/11/16 01:25:51;;;;;;;64.37;34.00;;;4.50;99.90;;;5.33;100.00;101043.13;5133739;28;20237;-65
2021/11/16 01:28:24;;;;;;;69.47;32.70;;;4.50;99.90;;;5.18;100.00;101047.41;5133581;28;20491;-64
2021/11/16 01:30:57;;;;;;;60.40;31.00;;;4.50;99.90;;;5.23;100.00;101050.41;5133134;28;20205;-65
2021/11/16 01:33:29;;;;;;;66.53;33.30;;;4.40;99.90;;;5.21;100.00;101055.94;5133459;28;20182;-64
2021/11/16 01:35:58;;;;;;;67.33;33.43;;;4.40;99.90;;;5.36;100.00;101048.94;5134476;28;20275;-64
2021/11/16 01:38:27;;;;;;;67.97;32.07;;;4.40;99.90;;;5.25;100.00;101045.75;5133808;28;20193;-64
2021/11/16 01:40:55;;;;;;;62.80;32.33;;;4.40;99.90;;;5.17;100.00;101043.06;5134427;28;20216;-65
2021/11/16 01:43:24;;;;;;;71.43;32.93;;;4.40;99.90;;;5.39;100.00;101037.13;5137304;27;20288;-64
2021/11/16 01:46:08;;;;;;;66.80;33.77;;;4.40;99.90;;;5.13;100.00;101036.38;5137517;27;20185;-64
2021/11/16 01:48:37;;;;;;;62.47;33.00;;;4.40;99.90;;;5.16;100.00;101036.06;5124982;27;20251;-64
2021/11/16 01:51:06;;;;;;;65.53;32.07;;;4.30;99.90;;;5.19;100.00;101035.75;5116331;28;20260;-63
2021/11/16 01:53:35;;;;;;;61.37;31.80;;;4.30;99.90;;;5.20;100.00;101034.72;5116468;28;20207;-64
2021/11/16 01:56:06;;;;;;;68.50;32.73;;;4.30;99.90;;;5.16;100.00;101030.72;5116494;28;20208;-64
2021/11/16 01:58:34;;;;;;;68.40;32.97;;;4.30;99.90;;;5.04;100.00;101032.84;5116949;28;20553;-64
2021/11/16 02:01:04;;;;;;;66.43;32.93;;;4.30;99.90;;;5.01;100.00;101032.38;5116929;28;20293;-65
2021/11/16 02:03:33;;;;;;;66.20;33.13;;;4.30;99.90;;;5.08;100.00;101025.34;5116760;28;20207;-64
2021/11/16 02:06:19;;;;;;;77.40;32.90;;;4.30;99.90;;;5.11;100.00;101025.03;5116547;28;20310;-68
2021/11/16 02:08:49;;;;;;;68.07;31.67;;;4.30;99.90;;;5.36;100.00;101016.06;5116381;28;20285;-64
2021/11/16 02:11:19;;;;;;;69.10;33.93;;;4.40;99.90;;;5.34;100.00;101024.25;5115864;28;20883;-64
2021/11/16 02:13:48;;;;;;;67.10;32.90;;;4.40;99.90;;;5.28;100.00;101024.06;5116204;28;20198;-64
2021/11/16 02:16:18;;;;;;;70.13;32.27;;;4.40;99.90;;;5.22;100.00;101024.72;5116098;28;20297;-64
2021/11/16 02:18:46;;;;;;;69.97;33.20;;;4.40;99.90;;;5.19;100.00;101022.38;5125415;27;20232;-64
2021/11/16 02:21:16;;;;;;;68.20;33.70;;;4.40;99.90;;;5.17;100.00;101013.69;5157161;27;20281;-64
2021/11/16 02:23:44;;;;;;;68.97;33.67;;;4.40;99.90;;;5.08;100.00;101017.34;5157276;27;20292;-64
2021/11/16 02:26:14;;;;;;;77.73;34.60;;;4.40;99.90;;;5.31;100.00;101018.41;5157258;27;20300;-64
2021/11/16 02:28:44;;;;;;;67.57;32.63;;;4.40;99.90;;;5.36;100.00;101006.22;5157177;27;20249;-64
2021/11/16 02:31:13;;;;;;;66.03;32.63;;;4.40;99.90;;;5.34;100.00;100996.69;5157142;27;20261;-63
2021/11/16 02:33:42;;;;;;;71.23;33.23;;;4.50;99.90;;;5.18;100.00;100997.50;5157270;27;20581;-64
2021/11/16 02:36:11;;;;;;;65.40;31.73;;;4.40;99.90;;;5.30;100.00;100998.03;5156828;27;20619;-64
2021/11/16 02:38:42;;;;;;;66.97;32.37;;;4.40;99.90;;;5.27;100.00;101003.69;5157030;27;20281;-65
2021/11/16 02:41:11;;;;;;;65.20;31.77;;;4.40;99.90;;;5.28;100.00;101014.22;5156971;27;20615;-64
2021/11/16 02:43:41;;;;;;;71.87;32.77;;;4.50;99.90;;;5.33;100.00;101000.38;5156621;27;20805;-65
2021/11/16 02:46:10;;;;;;;67.17;31.30;;;4.40;99.90;;;5.21;100.00;101004.38;5156898;27;20213;-64
2021/11/16 02:48:39;;;;;;;62.27;30.97;;;4.40;99.90;;;5.38;100.00;101006.88;5143867;27;20208;-64
2021/11/16 02:51:11;;;;;;;60.73;31.40;;;4.50;99.90;;;5.23;100.00;101008.53;5135761;27;20221;-64
2021/11/16 02:53:43;;;;;;;64.87;32.10;;;4.50;99.90;;;5.27;100.00;101001.88;5134805;27;20264;-64
2021/11/16 02:56:11;;;;;;;66.80;32.53;;;4.50;99.90;;;5.26;100.00;101005.53;5135583;27;20276;-64
2021/11/16 02:58:40;;;;;;;69.33;31.10;;;4.40;99.90;;;5.32;100.00;101002.22;5135377;27;20213;-64
2021/11/16 03:01:14;;;;;;;66.13;32.73;;;4.40;99.90;;;5.25;100.00;101003.03;5135596;27;20196;-64
2021/11/16 03:03:42;;;;;;;65.73;31.03;;;4.40;99.90;;;5.28;100.00;100995.53;5135869;27;20269;-65
2021/11/16 03:06:13;;;;;;;64.97;31.17;;;4.50;99.90;;;5.24;100.00;100991.53;5135677;27;20291;-64
2021/11/16 03:08:43;;;;;;;68.30;30.97;;;4.50;99.90;;;5.24;100.00;100988.84;5135741;27;20186;-64
2021/11/16 03:11:15;;;;;;;69.93;31.73;;;4.50;99.90;;;5.09;100.00;100987.78;5135845;27;20220;-64
2021/11/16 03:13:44;;;;;;;79.83;33.33;;;4.40;99.90;;;5.30;100.00;100996.19;5135622;27;20207;-64
2021/11/16 03:16:15;;;;;;;75.03;32.23;;;4.40;99.90;;;5.23;100.00;100983.66;5135530;27;20295;-64
2021/11/16 03:18:46;;;;;;;68.57;31.70;;;4.40;99.90;;;5.13;100.00;100986.47;5135298;27;20230;-65
2021/11/16 03:21:16;;;;;;;75.73;33.70;;;4.40;99.90;;;5.14;100.00;100990.00;5135354;27;20225;-64
2021/11/16 03:23:49;;;;;;;78.27;33.97;;;4.40;99.90;;;5.29;100.00;100988.34;5135512;27;20231;-65
2021/11/16 03:26:19;;;;;;;72.60;33.20;;;4.40;99.90;;;5.07;100.00;100987.16;5135359;27;20835;-64
2021/11/16 03:28:50;;;;;;;78.73;35.47;;;4.40;99.90;;;5.11;100.00;100983.13;5135499;27;20633;-64
2021/11/16 03:31:28;;;;;;;69.57;32.13;;;4.30;99.90;;;5.13;100.00;100983.81;5135245;27;20230;-64
2021/11/16 03:33:58;;;;;;;66.97;30.70;;;4.30;99.90;;;5.19;100.00;100977.84;5135004;27;20187;-65
2021/11/16 03:36:27;;;;;;;67.77;31.23;;;4.30;99.90;;;5.31;100.00;100975.66;5135048;27;20182;-64
2021/11/16 03:39:01;;;;;;;67.47;31.13;;;4.40;99.90;;;5.14;100.00;100976.66;5135177;27;20202;-64
2021/11/16 03:41:30;;;;;;;66.00;31.40;;;4.40;99.90;;;5.15;100.00;100975.63;5134916;27;20187;-64
2021/11/16 03:43:59;;;;;;;65.00;31.67;;;4.30;99.90;;;5.25;100.00;100974.50;5135186;27;20310;-64
2021/11/16 03:46:27;;;;;;;69.77;31.57;;;4.30;99.90;;;5.17;100.00;100970.97;5134895;27;20244;-64
2021/11/16 03:48:56;;;;;;;69.83;31.17;;;4.30;99.90;;;5.16;100.00;100970.13;5149979;27;20200;-64
2021/11/16 03:51:24;;;;;;;69.53;30.23;;;4.30;99.90;;;5.23;100.00;100972.97;5155363;27;20252;-64
2021/11/16 03:53:52;;;;;;;65.17;30.97;;;4.30;99.90;;;5.08;100.00;100970.13;5155634;27;20224;-64
2021/11/16 03:56:21;;;;;;;65.07;30.80;;;4.30;99.90;;;5.12;100.00;100970.63;5155517;27;20199;-63
2021/11/16 03:58:50;;;;;;;67.13;29.87;;;4.30;99.90;;;4.98;100.00;100980.13;5155556;27;20196;-64
2021/11/16 04:01:18;;;;;;;68.23;33.33;;;4.30;99.90;;;5.08;100.00;100962.13;5155157;27;20229;-65
2021/11/16 04:03:46;;;;;;;73.03;32.00;;;4.20;99.90;;;5.02;100.00;100960.13;5155390;27;20243;-64
2021/11/16 04:06:16;;;;;;;75.47;33.63;;;4.30;99.90;;;5.04;100.00;100967.97;5154560;27;20288;-65
2021/11/16 04:08:44;;;;;;;73.40;32.00;;;4.20;99.90;;;5.14;100.00;100950.78;5155386;27;20208;-64
2021/11/16 04:11:12;;;;;;;65.57;30.87;;;4.30;99.90;;;5.21;100.00;100962.44;5155287;27;20226;-64
2021/11/16 04:13:42;;;;;;;63.53;31.50;;;4.40;99.90;;;5.09;100.00;100949.59;5155240;27;20315;-65
2021/11/16 04:16:10;;;;;;;71.47;31.87;;;4.30;99.90;;;5.11;100.00;100952.94;5155175;27;20232;-65
2021/11/16 04:18:38;;;;;;;68.67;31.37;;;4.30;99.90;;;5.17;100.00;100949.59;5154721;27;20684;-64
2021/11/16 04:21:06;;;;;;;71.97;32.10;;;4.40;99.90;;;5.21;100.00;100943.75;5154852;27;20267;-64
2021/11/16 04:23:34;;;;;;;68.80;31.40;;;4.40;99.90;;;5.10;100.00;100945.91;5154714;27;20758;-64
2021/11/16 04:26:03;;;;;;;70.23;30.83;;;4.40;99.90;;;5.23;100.00;100939.09;5154970;27;20206;-65
2021/11/16 04:28:31;;;;;;;62.93;29.90;;;4.40;99.90;;;5.25;100.00;100938.94;5154554;27;20668;-65
2021/11/16 04:31:01;;;;;;;69.70;31.10;;;4.40;99.90;;;5.16;100.00;100940.75;5154709;27;20197;-65
2021/11/16 04:33:30;;;;;;;61.90;29.20;;;4.40;99.90;;;5.39;100.00;100931.09;5154968;27;20212;-65
2021/11/16 04:35:58;;;;;;;56.80;28.87;;;4.50;99.90;;;5.34;100.00;100932.59;5154585;27;20292;-64
2021/11/16 04:38:28;;;;;;;65.70;30.27;;;4.40;99.90;;;5.47;100.00;100931.09;5154824;27;20201;-64
2021/11/16 04:40:59;;;;;;;63.00;29.70;;;4.50;99.90;;;5.50;100.00;100937.91;5154811;27;20250;-64
2021/11/16 04:43:30;;;;;;;62.20;29.30;;;4.50;99.90;;;5.44;100.00;100938.59;5154875;27;20213;-64
2021/11/16 04:46:05;;;;;;;63.23;30.27;;;4.50;99.90;;;5.25;100.00;100944.25;5154766;27;20222;-64
2021/11/16 04:48:49;;;;;;;61.33;31.47;;;4.40;99.90;;;5.31;100.00;100944.44;5142882;27;20221;-64
2021/11/16 04:59:40;;;;;;;64.67;30.33;;;4.40;99.90;;;5.27;100.00;100927.09;5133831;27;20279;-64
2021/11/16 05:04:56;;;;;;;66.53;30.10;;;4.50;99.90;;;5.09;100.00;100931.72;5133736;28;20273;-64
2021/11/16 05:07:28;;;;;;;66.47;30.73;;;4.40;99.90;;;5.07;100.00;100932.91;5133522;28;20229;-65
2021/11/16 05:10:00;;;;;;;71.80;32.33;;;4.30;99.90;;;5.02;100.00;100922.75;5133697;28;20273;-64
2021/11/16 05:12:31;;;;;;;68.67;31.07;;;4.30;99.90;;;5.11;100.00;100918.25;5133740;28;20655;-65
2021/11/16 05:15:04;;;;;;;63.30;29.90;;;4.30;99.90;;;5.18;100.00;100922.72;5133695;28;20187;-64
2021/11/16 05:17:34;;;;;;;74.70;31.77;;;4.30;99.90;;;5.19;100.00;100918.25;5135570;27;20210;-64
2021/11/16 05:20:04;;;;;;;68.17;30.60;;;4.40;99.90;;;5.20;100.00;100915.41;5137548;27;20328;-65
2021/11/16 05:22:33;;;;;;;64.63;30.20;;;4.30;99.90;;;5.19;100.00;100916.41;5137815;27;20225;-65
2021/11/16 05:25:01;;;;;;;67.60;30.10;;;4.30;99.90;;;5.23;100.00;100922.22;5137691;27;20291;-65
2021/11/16 05:27:29;;;;;;;60.90;30.37;;;4.40;99.90;;;5.14;100.00;100921.41;5137791;27;20242;-65
2021/11/16 05:30:03;;;;;;;59.17;30.63;;;4.40;99.90;;;5.04;100.00;100917.22;5137652;27;20187;-64
2021/11/16 05:32:33;;;;;;;64.27;29.37;;;4.30;99.90;;;5.11;100.00;100927.06;5137782;27;20273;-64
2021/11/16 05:35:01;;;;;;;63.63;30.43;;;4.30;99.90;;;4.94;100.00;100925.38;5137247;27;20293;-65
2021/11/16 05:37:29;;;;;;;67.50;31.40;;;4.30;99.90;;;5.10;100.00;100924.56;5137447;27;20247;-65
2021/11/16 05:39:57;;;;;;;65.50;30.87;;;4.30;99.90;;;5.23;100.00;100923.06;5137288;27;20609;-64
2021/11/16 05:42:25;;;;;;;65.90;29.87;;;4.30;99.90;;;5.20;100.00;100926.09;5137544;27;20283;-64
2021/11/16 05:44:54;;;;;;;65.00;29.13;;;4.40;99.90;;;5.16;100.00;100922.06;5137287;27;20202;-65
2021/11/16 05:47:22;;;;;;;64.20;29.53;;;4.40;99.90;;;5.10;100.00;100927.22;5139022;27;20350;-64
2021/11/16 05:49:51;;;;;;;66.10;30.43;;;4.30;99.90;;;5.11;100.00;100926.25;5157990;27;20201;-65
2021/11/16 05:52:20;;;;;;;63.20;30.23;;;4.30;99.90;;;5.05;100.00;100927.75;5157614;27;20249;-64
2021/11/16 05:54:48;;;;;;;64.43;30.60;;;4.30;99.90;;;5.11;100.00;100931.59;5157572;27;20235;-64
2021/11/16 05:57:17;;;;;;;69.00;30.47;;;4.30;99.90;;;5.03;100.00;100924.41;5157968;27;20300;-65
2021/11/16 05:59:45;;;;;;;61.77;30.40;;;4.30;99.90;;;5.03;100.00;100923.53;5157738;27;20201;-65
2021/11/16 06:02:14;;;;;;;66.70;30.37;;;4.30;99.90;;;5.26;100.00;100925.41;5157705;27;20295;-64
2021/11/16 06:04:43;;;;;;;65.43;30.67;;;4.40;99.90;;;5.22;100.00;100928.56;5157678;27;20229;-64
2021/11/16 06:07:14;;;;;;;66.13;30.97;;;4.40;99.90;;;5.33;100.00;100915.72;5157079;27;20790;-65
2021/11/16 06:09:43;;;;;;;67.63;31.30;;;4.40;99.90;;;5.19;100.00;100921.75;5157386;27;20182;-65
2021/11/16 06:12:12;;;;;;;61.33;29.50;;;4.40;99.90;;;5.10;100.00;100921.88;5157447;27;20235;-65
2021/11/16 06:14:40;;;;;;;66.77;30.93;;;4.30;99.90;;;5.14;100.00;100921.41;5157005;27;20296;-65
2021/11/16 06:17:08;;;;;;;68.23;30.90;;;4.40;99.90;;;5.12;100.00;100927.91;5157548;27;20751;-64
2021/11/16 06:19:39;;;;;;;68.17;31.03;;;4.40;99.90;;;5.17;100.00;100915.75;5157144;27;20324;-67
2021/11/16 06:22:09;;;;;;;61.80;29.90;;;4.40;99.90;;;5.20;100.00;100923.41;5157154;27;20521;-65
2021/11/16 06:24:39;;;;;;;66.97;30.60;;;4.40;99.90;;;5.33;100.00;100914.91;5157157;27;20245;-65
2021/11/16 06:27:09;;;;;;;63.93;30.63;;;4.40;99.90;;;5.15;100.00;100927.56;5157005;27;20760;-65
2021/11/16 06:29:37;;;;;;;65.60;29.87;;;4.40;99.90;;;5.30;100.00;100913.41;5156798;27;20633;-66
2021/11/16 06:32:07;;;;;;;61.20;29.83;;;4.40;99.90;;;5.19;100.00;100921.75;5156816;27;20652;-65
2021/11/16 06:34:37;;;;;;;64.50;30.97;;;4.40;99.90;;;5.19;100.00;100919.09;5157032;27;20273;-65
2021/11/16 06:37:08;;;;;;;64.17;31.03;;;4.40;99.90;;;5.18;100.00;100930.75;5157027;27;20190;-65
2021/11/16 06:39:36;;;;;;;63.03;30.63;;;4.40;99.90;;;5.30;100.00;100932.09;5157020;27;20224;-64
2021/11/16 06:42:06;;;;;;;60.93;31.07;;;4.40;99.90;;;5.30;100.00;100926.75;5156911;27;20555;-64
2021/11/16 06:44:34;;;;;;;63.47;30.37;;;4.40;99.90;;;5.34;100.00;100936.09;5156715;27;20185;-65
2021/11/16 06:47:03;;;;;;;58.60;30.20;;;4.40;99.90;;;5.25;100.00;100936.25;5156310;27;20292;-65
2021/11/16 06:49:32;;;;;;;63.20;30.70;;;4.40;99.90;;;5.36;100.00;100928.75;5136395;27;20204;-64
2021/11/16 06:52:00;;;;;;;60.13;30.17;;;4.40;99.90;;;5.45;100.00;100934.91;5135583;27;20205;-64
2021/11/16 06:54:28;;;;;;;58.03;29.03;;;4.50;99.90;;;5.39;100.00;100939.13;5135464;27;20283;-64
2021/11/16 06:56:57;;;;;;;52.93;27.73;;;4.40;99.90;;;5.26;100.00;100937.94;5135817;27;20287;-64
2021/11/16 06:59:28;;;;;;;59.83;29.23;;;4.40;99.90;;;5.21;100.00;100929.59;5135522;27;20292;-65
2021/11/16 07:01:56;;;;;;;55.23;29.17;;;4.40;99.90;;;5.21;100.00;100935.75;5135737;27;20186;-65
2021/11/16 07:04:25;;;;;;;61.47;29.67;;;4.40;99.90;;;5.45;100.00;100933.09;5135717;27;20198;-65
2021/11/16 07:06:54;;;;;;;53.03;27.43;;;4.50;99.90;;;5.39;100.00;100930.25;5135539;27;20232;-64
2021/11/16 07:09:23;;;;;;;47.93;26.57;;;4.50;99.90;;;5.46;100.00;100932.09;5135564;27;20560;-64
2021/11/16 07:11:53;;;;;;;50.33;27.03;;;4.50;99.90;;;5.41;100.00;100928.25;5135509;27;20240;-64
2021/11/16 07:14:26;;;;;;;46.07;25.87;;;4.50;99.90;;;5.33;100.00;100937.09;5135259;27;20238;-64
2021/11/16 07:17:04;;;;;;;46.53;25.83;;;4.50;99.90;;;5.27;100.00;100940.44;5135533;27;20194;-64
2021/11/16 07:19:38;;;;;;;52.50;26.37;;;4.50;99.90;;;5.38;100.00;100929.41;5135076;27;20323;-64
2021/11/16 07:22:12;;;;;;;48.40;27.30;;;4.60;99.90;;;5.44;100.00;100938.59;5135291;27;20276;-64
2021/11/16 07:24:45;;;;;;;52.57;26.43;;;4.60;99.90;;;5.33;100.00;100928.28;5135167;27;20700;-63
2021/11/16 07:27:16;;;;;;;53.63;28.10;;;4.60;99.90;;;5.53;100.00;100927.72;5135289;27;20218;-64
2021/11/16 07:29:48;;;;;;;53.13;27.73;;;4.60;99.90;;;5.47;100.00;100927.56;5134952;27;20728;-63
2021/11/16 07:32:22;;;;;;;51.93;27.43;;;4.60;99.90;;;5.49;100.00;100933.59;5135216;27;20277;-64
2021/11/16 07:34:51;;;;;;;50.63;28.03;;;4.70;99.90;;;5.57;100.00;100934.41;5135192;27;20301;-65
2021/11/16 07:37:24;;;;;;;48.03;26.17;;;4.70;99.90;;;5.67;100.00;100935.06;5134495;27;20560;-66
2021/11/16 07:39:57;;;;;;;52.33;26.93;;;4.70;99.90;;;5.67;100.00;100939.56;5134120;27;20660;-67
2021/11/16 07:42:30;;;;;;;51.87;26.93;;;4.80;99.90;;;5.73;100.00;100941.59;5134809;27;20282;-66
2021/11/16 07:45:10;;;;;;;51.40;28.20;;;4.80;99.90;;;5.75;100.00;100927.03;5134512;27;20273;-65
2021/11/16 07:47:45;;;;;;;48.30;25.87;;;4.80;99.90;;;5.65;100.00;100921.03;5138496;27;20284;-66
2021/11/16 07:50:20;;;;;;;54.20;27.27;;;4.80;99.90;;;5.87;100.00;100927.53;5155259;27;20189;-67
2021/11/16 07:52:48;;;;;;;53.50;27.77;;;4.90;99.90;;;5.81;100.00;100917.50;5155568;27;20288;-65
2021/11/16 07:55:25;;;;;;;47.27;26.50;;;4.90;99.90;;;5.81;100.00;100921.03;5155336;27;20284;-65
2021/11/16 07:57:55;;;;;;;45.33;26.17;;;5.00;99.90;;;5.94;100.00;100916.00;5155459;27;20641;-66
2021/11/16 08:00:27;;;;;;;48.40;26.90;;;5.10;99.90;;;5.98;100.00;100922.69;5155256;27;20240;-66
2021/11/16 08:03:02;;;;;;;47.10;27.00;;;5.10;99.90;;;6.10;100.00;100921.31;5155351;27;20186;-66
2021/11/16 08:05:45;;;;;;;47.50;26.33;;;5.10;99.90;;;6.01;100.00;100922.34;5155067;27;20248;-66
2021/11/16 08:11:17;;;;;;;40.93;23.70;;;5.30;99.90;;;6.08;100.00;100919.81;5143900;27;20247;-65
2021/11/16 08:13:58;;;;;;;39.17;24.13;;;5.30;99.90;;;6.11;100.00;100919.47;5154992;27;20296;-65
2021/11/16 08:16:28;;;;;;;40.57;24.67;;;5.30;99.90;;;6.14;100.00;100917.28;5154929;27;20221;-66
2021/11/16 08:19:06;;;;;;;42.23;25.17;;;5.30;99.90;;;6.14;100.00;100913.75;5154908;27;20224;-67
2021/11/16 08:21:38;;;;;;;46.27;25.73;;;5.30;99.90;;;6.16;100.00;100917.09;5155689;27;20182;-66
2021/11/16 08:24:11;;;;;;;44.53;25.03;;;5.40;99.90;;;6.40;100.00;100911.66;5154870;27;20268;-66
2021/11/16 08:26:43;;;;;;;43.57;26.27;;;5.40;99.90;;;6.30;100.00;100913.72;5154856;27;20273;-65
2021/11/16 08:29:15;;;;;;;43.13;24.23;;;5.40;99.90;;;6.39;100.00;100914.53;5154763;27;20272;-66
2021/11/16 08:31:49;;;;;;;38.83;24.40;;;5.50;99.90;;;6.39;100.00;100911.84;5154682;27;20269;-65
2021/11/16 08:34:20;;;;;;;43.23;25.47;;;5.50;99.90;;;6.35;100.00;100913.19;5154092;27;20591;-65
2021/11/16 08:36:52;;;;;;;42.23;25.17;;;5.50;99.90;;;6.33;100.00;100920.56;5136553;27;20278;-66
2021/11/16 08:39:31;;;;;;;42.77;24.30;;;5.50;99.90;;;6.39;100.00;100918.03;5144209;27;20194;-66
2021/11/16 08:42:00;;;;;;;37.30;23.17;;;5.50;99.90;;;6.62;100.00;100916.25;5147678;27;20214;-65
2021/11/16 08:44:31;;;;;;;36.20;21.63;;;5.60;99.90;;;6.45;100.00;100911.97;5143432;27;20259;-64
2021/11/16 08:47:12;;;;;;;36.93;23.13;;;5.60;99.90;;;6.54;100.00;100912.78;5156866;27;20265;-66
2021/11/16 08:49:46;;;;;;;38.33;23.30;;;5.60;99.90;;;6.37;100.00;100901.31;5135964;27;21211;-65
2021/11/16 08:52:17;;;;;;;42.53;25.00;;;5.60;99.90;;;6.53;100.00;100911.94;5132523;27;20661;-66
2021/11/16 08:54:58;;;;;;;44.20;24.63;;;5.60;99.90;;;6.45;100.00;100908.47;5133582;27;20217;-66
2021/11/16 08:57:30;;;;;;;40.47;23.97;;;5.60;99.90;;;6.53;100.00;100906.56;5143907;27;20217;-65
2021/11/16 08:59:59;;;;;;;44.07;25.50;;;5.70;99.90;;;6.45;100.00;100909.31;5154304;27;20186;-67
2021/11/16 09:02:29;;;;;;;42.27;24.77;;;5.60;99.90;;;6.54;100.00;100902.91;5154366;27;20221;-65
2021/11/16 09:05:11;;;;;;;40.97;22.97;;;5.60;99.90;;;6.59;100.00;100899.69;5154365;27;20625;-66
2021/11/16 09:07:51;;;;;;;40.17;25.23;;;5.70;99.90;;;6.56;100.00;100900.88;5154288;27;20254;-66
2021/11/16 09:10:21;;;;;;;38.97;24.37;;;5.70;99.90;;;6.61;100.00;100901.22;5155113;27;20182;-66
2021/11/16 09:12:53;;;;;;;38.47;24.10;;;5.70;99.90;;;6.66;100.00;100896.16;5156143;27;20198;-66
2021/11/16 09:15:35;;;;;;;37.87;23.43;;;5.70;99.90;;;6.78;100.00;100908.09;5154862;27;20298;-65
2021/11/16 09:18:15;;;;;;;37.53;23.73;;;5.80;99.90;;;6.70;100.00;100894.78;5155139;27;20206;-66
2021/11/16 09:20:56;;;;;;;38.27;24.40;;;5.80;99.90;;;6.78;100.00;100894.72;5155646;27;20193;-65
2021/11/16 09:23:30;;;;;;;39.87;24.90;;;5.80;99.90;;;6.84;100.00;100894.03;5155883;27;20621;-65
2021/11/16 09:26:17;;;;;;;39.03;23.93;;;5.90;99.90;;;6.93;100.00;100897.47;5156953;27;20693;-65
2021/11/16 09:28:52;;;;;;;36.30;23.13;;;5.90;99.90;;;6.96;100.00;100884.56;5156996;27;20222;-66
2021/11/16 09:31:27;;;;;;;35.97;22.40;;;6.00;99.90;;;7.06;100.00;100887.84;5154821;27;20197;-66
2021/11/16 09:33:59;;;;;;;36.20;23.23;;;6.10;99.90;;;7.07;100.00;100897.53;5156421;27;20182;-65
2021/11/16 09:36:33;;;;;;;36.60;23.03;;;6.20;99.90;;;7.19;100.00;100892.59;5156325;27;20223;-65
2021/11/16 09:39:08;;;;;;;40.73;23.80;;;6.10;99.90;;;7.18;100.00;100898.97;5156797;27;20193;-65
2021/11/16 09:41:42;;;;;;;34.63;22.60;;;6.20;99.90;;;7.17;100.00;100905.34;5153947;27;20233;-65
2021/11/16 09:44:16;;;;;;;36.20;22.30;;;6.20;99.90;;;7.33;100.00;100897.16;5153759;27;20222;-65
2021/11/16 09:46:51;;;;;;;32.07;21.53;;;6.30;99.90;;;7.32;100.00;100900.88;5153482;27;20292;-66
2021/11/16 09:49:32;;;;;;;35.47;23.30;;;6.30;99.90;;;7.29;100.00;100896.69;5153487;27;20217;-65
2021/11/16 09:52:06;;;;;;;37.07;22.73;;;6.40;99.90;;;7.55;100.00;100888.25;5153544;27;20288;-65
2021/11/16 09:54:49;;;;;;;35.73;22.70;;;6.40;99.90;;;7.41;100.00;100879.16;5153578;27;20216;-65
2021/11/16 09:57:20;;;;;;;36.27;22.63;;;6.40;99.90;;;7.36;100.00;100881.56;5153685;27;20186;-65
2021/11/16 09:59:49;;;;;;;34.60;22.17;;;6.40;99.90;;;7.52;100.00;100879.75;5153270;27;20606;-65
2021/11/16 10:02:26;;;;;;;34.57;22.47;;;6.40;99.90;;;7.45;100.00;100874.28;5153530;27;20247;-64
2021/11/16 10:05:01;;;;;;;33.00;22.63;;;6.50;99.90;;;7.50;100.00;100866.53;5157018;27;20661;-66
2021/11/16 10:07:33;;;;;;;39.53;23.70;;;6.50;99.90;;;7.65;100.00;100862.00;5157194;27;20205;-65
2021/11/16 10:10:05;;;;;;;36.00;23.33;;;6.60;99.90;;;7.59;100.00;100867.28;5157010;27;20589;-64
2021/11/16 10:12:43;;;;;;;37.13;23.57;;;6.60;99.90;;;7.55;100.00;100866.81;5157171;27;20665;-65
2021/11/16 10:15:16;;;;;;;44.10;25.43;;;6.50;99.90;;;7.77;100.00;100870.44;5156882;27;20265;-65
2021/11/16 10:17:46;;;;;;;40.53;25.20;;;6.60;99.90;;;7.54;100.00;100865.16;5157231;27;20243;-65
2021/11/16 10:20:17;;;;;;;40.43;25.47;;;6.60;99.90;;;7.37;100.00;100869.00;5156870;27;20230;-65
2021/11/16 10:23:03;;;;;;;46.63;26.20;;;6.40;99.90;;;7.34;100.00;100862.13;5156641;27;20193;-66
2021/11/16 10:25:32;;;;;;;40.63;25.20;;;6.40;99.90;;;7.41;100.00;100855.03;5156756;27;20177;-66
2021/11/16 10:28:08;;;;;;;39.63;24.63;;;6.40;99.90;;;7.41;100.00;100863.09;5156132;27;20293;-67
2021/11/16 10:30:39;;;;;;;42.70;26.87;;;6.50;99.90;;;7.53;100.00;100860.78;5156806;27;20179;-66
2021/11/16 10:33:12;;;;;;;42.43;25.93;;;6.50;99.90;;;7.59;100.00;100854.72;5156517;27;20183;-66
2021/11/16 10:35:50;;;;;;;39.63;25.43;;;6.60;99.90;;;7.64;100.00;100854.16;5156507;27;20205;-65